Latest Coastal Weather Observations for Ngayawili (Elcho Island)

IDD60701

Issued at 2:51 am CST Sunday 24 June 2018 (issued every 10 minutes, with the page automatically refreshed every 10 minutes)

About coastal observations | Map of coastal stations | Coastal observations for NT | Marine services | Other Formats
Station Details ID: 014517 Name: NGAYAWILI Lat: -12.00 Lon: 135.57 Height: 8.1 m
Data from the previous 72 hours. | See also: Recent months at Ngayawili (Elcho Island)
Date/Time
CST
Temp
°C
Wind Pressure Rain since
9am
mm
Weather Cloud Vis
km
Sea
Height
m
Swell
Dir  Spd
kts
Gust
kts
hPa Trend Height
m
Period
s
Dir
24/02:30am 21.0 SSE 9 14 1014.5 - 0.0 - - - - - - -
24/02:00am 21.0 SE 10 14 1014.9 - 0.0 - - - - - - -
24/01:30am 21.2 SE 11 15 1015.1 - 0.0 - - - - - - -
24/01:00am 21.3 SSE 11 16 1015.5 - 0.0 - - - - - - -
24/12:30am 21.6 SE 13 19 1015.5 - 0.0 - - - - - - -
24/12:00am 21.7 SE 12 18 1015.6 - 0.0 - - - - - - -
 
Date/Time
CST
Temp
°C
Wind Pressure Rain since
9am
mm
Weather Cloud Vis
km
Sea
Height
m
Swell
Dir  Spd
kts
Gust
kts
hPa Trend Height
m
Period
s
Dir
23/11:30pm 21.9 SE 11 18 1015.7 - 0.0 - - - - - - -
23/11:00pm 22.4 SE 9 16 1016.0 - 0.0 - - - - - - -
23/10:30pm 22.9 SE 9 13 1016.1 - 0.0 - - - - - - -
23/10:00pm 23.4 SE 10 17 1016.2 - 0.0 - - - - - - -
23/09:30pm 23.8 SE 9 13 1016.2 - 0.0 - - - - - - -
23/09:00pm 24.3 SSE 7 11 1015.9 - 0.0 - - - - - - -
23/08:30pm 24.7 SE 8 11 1015.6 - 0.0 - - - - - - -
23/08:00pm 24.7 SE 6 11 1015.1 - 0.0 - - - - - - -
23/07:30pm 24.9 ESE 6 8 1014.7 - 0.0 - - - - - - -
23/07:00pm 25.2 ESE 7 11 1014.3 - 0.0 - - - - - - -
23/06:30pm 25.5 ESE 7 11 1013.9 - 0.0 - - - - - - -
23/06:00pm 26.1 ESE 8 13 1013.6 - 0.0 - - - - - - -
23/05:30pm 26.4 ESE 7 11 1013.2 - 0.0 - - - - - - -
23/05:00pm 27.0 ESE 10 16 1012.9 - 0.0 - - - - - - -
23/04:30pm 28.5 ESE 10 16 1012.5 - 0.0 - - - - - - -
23/04:00pm 28.9 ESE 9 15 1012.3 - 0.0 - - - - - - -
23/03:30pm 29.3 E 8 13 1012.0 - 0.0 - - - - - - -
23/03:00pm 29.6 ESE 9 16 1012.0 - 0.0 - - - - - - -
23/02:30pm 29.2 SE 10 17 1012.1 - 0.0 - - - - - - -
23/02:00pm 29.5 ESE 10 16 1012.7 - 0.0 - - - - - - -
23/01:30pm 29.8 SE 9 15 1013.0 - 0.0 - - - - - - -
23/01:00pm 29.0 SE 10 17 1013.5 - 0.0 - - - - - - -
23/12:30pm 28.0 SE 11 16 1013.8 - 0.0 - - - - - - -
23/12:00pm 27.9 ESE 11 17 1014.3 - 0.0 - - - - - - -
23/11:30am 28.0 ESE 11 16 1014.6 - 0.0 - - - - - - -
23/11:00am 27.4 SE 11 16 1014.8 - 0.0 - - - - - - -
23/10:30am 26.2 SE 10 15 1015.1 - 0.0 - - - - - - -
23/10:00am 25.3 SE 11 17 1015.3 - 0.0 - - - - - - -
23/09:30am 24.5 SE 10 14 1015.4 - 0.0 - - - - - - -
23/09:00am 23.6 SSE 9 14 1015.6 - 0.0 - - - - - - -
23/08:30am 22.6 SSE 8 11 1015.3 - 0.0 - - - - - - -
23/08:00am 21.7 SE 6 10 1015.3 - 0.0 - - - - - - -
23/07:30am 20.3 SE 6 9 1015.1 - 0.0 - - - - - - -
23/07:00am 19.8 SSE 6 8 1014.8 - 0.0 - - - - - - -
23/06:30am 19.6 SSE 6 8 1014.6 - 0.0 - - - - - - -
23/06:00am 19.6 SSE 5 7 1014.4 - 0.0 - - - - - - -
23/05:30am 19.9 SSE 5 7 1014.0 - 0.0 - - - - - - -
23/05:00am 20.1 SSE 6 8 1014.0 - 0.0 - - - - - - -
23/04:30am 20.0 SSE 6 8 1014.0 - 0.0 - - - - - - -
23/04:00am 20.2 SSE 6 8 1014.1 - 0.0 - - - - - - -
23/03:30am 20.4 SE 6 9 1014.0 - 0.0 - - - - - - -
23/03:00am 20.6 SSE 6 9 1014.2 - 0.0 - - - - - - -
23/02:30am 20.7 SE 7 9 1014.4 - 0.0 - - - - - - -
23/02:00am 20.7 SE 7 11 1014.6 - 0.0 - - - - - - -
23/01:30am 20.8 SE 6 10 1014.9 - 0.0 - - - - - - -
23/01:00am 21.0 SE 6 9 1015.2 - 0.0 - - - - - - -
23/12:30am 21.2 SSE 7 11 1015.4 - 0.0 - - - - - - -
23/12:00am 21.3 SE 7 11 1015.7 - 0.0 - - - - - - -
 
Date/Time
CST
Temp
°C
Wind Pressure Rain since
9am
mm
Weather Cloud Vis
km
Sea
Height
m
Swell
Dir  Spd
kts
Gust
kts
hPa Trend Height
m
Period
s
Dir
22/11:30pm 21.5 SE 8 13 1015.8 - 0.0 - - - - - - -
22/11:00pm 22.0 SSE 8 13 1016.0 - 0.0 - - - - - - -
22/10:30pm 22.8 SSE 7 11 1015.9 - 0.0 - - - - - - -
22/10:00pm 23.2 SE 8 15 1015.9 - 0.0 - - - - - - -
22/09:30pm 23.6 SE 8 14 1016.0 - 0.0 - - - - - - -
22/09:00pm 23.9 SE 8 14 1015.7 - 0.0 - - - - - - -
22/08:30pm 24.1 SE 7 11 1015.6 - 0.0 - - - - - - -
22/08:00pm 24.4 ESE 8 12 1015.3 - 0.0 - - - - - - -
22/07:30pm 24.7 ESE 7 12 1014.9 - 0.0 - - - - - - -
22/07:00pm 25.2 ESE 7 11 1014.4 - 0.0 - - - - - - -
22/06:30pm 25.6 ESE 7 12 1013.9 - 0.0 - - - - - - -
22/06:00pm 26.3 ESE 7 10 1013.5 - 0.0 - - - - - - -
22/05:30pm 27.3 ESE 7 11 1013.3 - 0.0 - - - - - - -
22/05:00pm 28.2 ESE 8 14 1013.0 - 0.0 - - - - - - -
22/04:30pm 28.6 ESE 8 15 1012.9 - 0.0 - - - - - - -
22/04:00pm 29.0 ESE 9 15 1012.7 - 0.0 - - - - - - -
22/03:30pm 29.0 ESE 10 15 1012.8 - 0.0 - - - - - - -
22/03:00pm 29.1 ESE 10 16 1013.0 - 0.0 - - - - - - -
22/02:30pm 29.3 ESE 10 16 1013.3 - 0.0 - - - - - - -
22/02:00pm 29.0 ESE 11 18 1013.6 - 0.0 - - - - - - -
22/01:30pm 28.8 ESE 11 19 1014.0 - 0.0 - - - - - - -
22/01:00pm 28.4 ESE 12 21 1014.3 - 0.0 - - - - - - -
22/12:30pm 28.3 ESE 11 22 1015.0 - 0.0 - - - - - - -
22/12:00pm 28.1 ESE 8 14 1015.4 - 0.0 - - - - - - -
22/11:30am 26.7 ESE 12 19 1015.8 - 0.0 - - - - - - -
22/11:00am 26.6 ESE 12 19 1016.0 - 0.0 - - - - - - -
22/10:30am 25.9 ESE 11 17 1016.2 - 0.0 - - - - - - -
22/10:00am 25.3 ESE 11 17 1016.4 - 0.0 - - - - - - -
22/09:30am 24.7 SE 10 14 1016.5 - 0.0 - - - - - - -
22/09:00am 23.5 SE 9 16 1016.3 - 0.0 - - - - - - -
22/08:30am 22.4 SE 9 15 1015.9 - 0.0 - - - - - - -
22/08:00am 21.4 SE 8 12 1015.5 - 0.0 - - - - - - -
22/07:30am 20.5 SSE 7 11 1015.2 - 0.0 - - - - - - -
22/07:00am 19.9 SE 6 8 1015.1 - 0.0 - - - - - - -
22/06:30am 19.9 SE 6 10 1014.9 - 0.0 - - - - - - -
22/06:00am 19.9 SE 6 9 1015.0 - 0.0 - - - - - - -
22/05:30am 19.8 SE 6 8 1014.9 - 0.0 - - - - - - -
22/05:00am 20.1 SE 6 9 1014.8 - 0.0 - - - - - - -
22/04:30am 20.3 SSE 7 12 1014.8 - 0.0 - - - - - - -
22/04:00am 20.4 SSE 8 12 1014.8 - 0.0 - - - - - - -
22/03:30am 20.3 S 5 8 1014.7 - 0.0 - - - - - - -
22/03:00am 20.5 SSE 3 5 1014.9 - 0.0 - - - - - - -
22/02:30am 20.7 SSE 4 6 1015.2 - 0.0 - - - - - - -
22/02:00am 20.8 SE 4 8 1015.4 - 0.0 - - - - - - -
22/01:30am 21.0 SE 6 9 1015.6 - 0.0 - - - - - - -
22/01:00am 21.2 SE 7 12 1015.7 - 0.0 - - - - - - -
22/12:30am 21.5 SE 8 13 1015.8 - 0.0 - - - - - - -
22/12:00am 21.8 SE 9 13 1015.8 - 0.0 - - - - - - -
 
Date/Time
CST
Temp
°C
Wind Pressure Rain since
9am
mm
Weather Cloud Vis
km
Sea
Height
m
Swell
Dir  Spd
kts
Gust
kts
hPa Trend Height
m
Period
s
Dir
21/11:30pm 22.2 SE 10 14 1016.0 - 0.0 - - - - - - -
21/11:00pm 22.8 SSE 8 13 1016.0 - 0.0 - - - - - - -
21/10:30pm 23.2 SE 8 16 1016.2 - 0.0 - - - - - - -
21/10:00pm 23.4 SE 7 11 1016.5 - 0.0 - - - - - - -
21/09:30pm 23.8 SE 8 13 1016.5 - 0.0 - - - - - - -
21/09:00pm 24.2 SE 9 15 1016.3 - 0.0 - - - - - - -
21/08:30pm 24.6 SE 8 11 1016.0 - 0.0 - - - - - - -
21/08:00pm 25.2 SE 10 15 1015.7 - 0.0 - - - - - - -
21/07:30pm 25.3 SE 7 12 1015.3 - 0.0 - - - - - - -
21/07:00pm 25.7 ESE 6 9 1014.9 - 0.0 - - - - - - -
21/06:30pm 26.0 ESE 6 9 1014.4 - 0.0 - - - - - - -
21/06:00pm 26.8 ESE 6 8 1013.9 - 0.0 - - - - - - -
21/05:30pm 27.7 ESE 8 14 1013.5 - 0.0 - - - - - - -
21/05:00pm 28.5 ESE 8 13 1013.2 - 0.0 - - - - - - -
21/04:30pm 29.1 ESE 7 11 1012.7 - 0.0 - - - - - - -
21/04:00pm 29.3 ESE 9 14 1012.6 - 0.0 - - - - - - -
21/03:30pm 29.4 ESE 9 16 1012.6 - 0.0 - - - - - - -
21/03:00pm 29.5 ESE 10 16 1012.7 - 0.0 - - - - - - -
21/02:30pm 29.9 ESE 10 17 1012.9 - 0.0 - - - - - - -
21/02:00pm 29.9 ESE 8 14 1013.1 - 0.0 - - - - - - -
21/01:30pm 29.2 SE 11 18 1013.5 - 0.0 - - - - - - -
21/01:00pm 28.7 SE 11 16 1013.9 - 0.0 - - - - - - -
21/12:30pm 28.6 SE 11 16 1014.4 - 0.0 - - - - - - -
21/12:00pm 28.1 SE 11 17 1014.8 - 0.0 - - - - - - -
21/11:30am 27.6 SE 10 17 1015.1 - 0.0 - - - - - - -
21/11:00am 27.0 SE 11 16 1015.4 - 0.0 - - - - - - -
21/10:30am 26.0 SE 10 16 1015.8 - 0.0 - - - - - - -
21/10:00am 25.6 SE 9 13 1016.1 - 0.0 - - - - - - -
21/09:30am 24.8 SE 8 13 1016.3 - 0.0 - - - - - - -
21/09:00am 24.5 SE 7 12 1016.2 - 0.0 - - - - - - -
21/08:30am 22.7 SE 7 11 1016.1 - 0.0 - - - - - - -
21/08:00am 21.6 SE 7 10 1015.9 - 0.0 - - - - - - -
21/07:30am 20.9 SSE 5 8 1015.6 - 0.0 - - - - - - -
21/07:00am 20.7 SE 5 8 1015.3 - 0.0 - - - - - - -
21/06:30am 20.9 SSE 6 8 1015.1 - 0.0 - - - - - - -
21/06:00am 21.5 SE 5 7 1014.7 - 0.0 - - - - - - -
21/05:30am 21.7 SE 5 7 1014.4 - 0.0 - - - - - - -
21/05:00am 21.8 SE 5 9 1014.3 - 0.0 - - - - - - -
21/04:30am 21.9 SE 6 8 1014.2 - 0.0 - - - - - - -
21/04:00am 22.1 ESE 7 12 1014.4 - 0.0 - - - - - - -
21/03:30am 22.3 SE 5 8 1014.5 - 0.0 - - - - - - -
21/03:00am 22.6 SE 6 10 1014.9 - 0.0 - - - - - - -

Other Formats:

Comma delimited format used in spreadsheet applications
http://www.bom.gov.au/fwo/IDD60701/IDD60701.95146.axf

JavaScript Object Notation format (JSON) in row-major order
http://www.bom.gov.au/fwo/IDD60701/IDD60701.95146.json